createdAt,value
2023-04-20T00:00:27.534Z,102069.06
2023-04-20T00:02:54.430Z,102035.34
2023-04-20T00:05:21.461Z,102042.13
2023-04-20T00:07:48.554Z,102010.06
2023-04-20T00:10:15.631Z,102046.91
2023-04-20T00:12:42.751Z,102026.31
2023-04-20T00:15:09.726Z,102055.56
2023-04-20T00:17:38.527Z,101964.53
2023-04-20T00:20:07.848Z,102039.41
2023-04-20T00:22:35.953Z,102024.66
2023-04-20T00:25:03.133Z,102037.75
2023-04-20T00:27:29.676Z,102039.28
2023-04-20T00:29:56.541Z,102033.69
2023-04-20T00:32:23.560Z,102036.34
2023-04-20T00:34:50.305Z,102027.44
2023-04-20T00:37:16.970Z,101981.03
2023-04-20T00:39:43.607Z,101880.28
2023-04-20T00:42:42.304Z,102013.09
2023-04-20T00:45:09.766Z,101995.28
2023-04-20T00:47:37.234Z,101996.19
2023-04-20T00:50:04.515Z,101995.66
2023-04-20T00:52:32.223Z,101880.22
2023-04-20T00:54:58.964Z,101877.06
2023-04-20T00:57:27.475Z,101971.84
2023-04-20T00:59:54.145Z,101968.16
2023-04-20T01:02:22.782Z,101957.00
2023-04-20T01:04:49.813Z,101963.19
2023-04-20T01:07:16.416Z,101965.88
2023-04-20T01:09:43.148Z,101858.16
2023-04-20T01:12:11.236Z,101928.22
2023-04-20T01:14:37.926Z,101958.22
2023-04-20T01:17:05.829Z,101821.59
2023-04-20T01:19:33.553Z,101928.38
2023-04-20T01:22:02.224Z,101677.59
2023-04-20T01:24:29.044Z,101893.69
2023-04-20T01:26:56.349Z,101930.63
2023-04-20T01:29:23.031Z,101920.38
2023-04-20T01:31:49.768Z,101914.34
2023-04-20T01:34:17.576Z,101917.22
2023-04-20T01:36:45.628Z,101914.50
2023-04-20T01:39:12.698Z,101806.53
2023-04-20T01:41:39.838Z,101885.28
2023-04-20T01:44:06.502Z,101902.00
2023-04-20T01:46:33.229Z,101878.94
2023-04-20T01:48:59.831Z,101883.53
2023-04-20T01:51:26.451Z,101862.13
2023-04-20T01:53:53.914Z,101635.38
2023-04-20T01:56:20.610Z,101852.28
2023-04-20T01:58:47.289Z,101821.84
2023-04-20T02:01:14.007Z,101818.69
2023-04-20T02:03:41.065Z,101856.69
2023-04-20T02:06:08.069Z,101875.44
2023-04-20T02:08:34.966Z,101645.72
2023-04-20T02:11:01.801Z,101841.34
2023-04-20T02:13:28.398Z,101837.59
2023-04-20T02:15:55.493Z,101850.78
2023-04-20T02:18:22.839Z,101862.38
2023-04-20T02:20:49.590Z,101847.28
2023-04-20T02:23:16.404Z,101871.19
2023-04-20T02:25:43.032Z,101716.41
2023-04-20T02:28:11.650Z,101837.91
2023-04-20T02:30:38.628Z,101852.50
2023-04-20T02:33:05.269Z,101835.19
2023-04-20T02:35:32.118Z,101775.44
2023-04-20T02:37:58.799Z,101846.72
2023-04-20T02:40:25.571Z,101820.75
2023-04-20T02:42:53.851Z,101844.31
2023-04-20T02:45:20.514Z,101739.97
2023-04-20T02:47:47.335Z,101824.22
2023-04-20T02:50:15.089Z,101780.78
2023-04-20T02:53:00.661Z,101830.31
2023-04-20T02:55:28.493Z,101829.03
2023-04-20T02:57:58.876Z,101788.75
2023-04-20T03:00:48.190Z,101755.31
2023-04-20T03:03:15.373Z,101819.34
2023-04-20T03:05:42.425Z,101805.44
2023-04-20T03:08:09.574Z,101810.38
2023-04-20T03:10:36.302Z,101817.59
2023-04-20T03:13:11.620Z,101798.34
2023-04-20T03:15:50.760Z,101713.00
2023-04-20T03:19:00.746Z,101796.78
2023-04-20T03:21:28.584Z,101789.97
2023-04-20T03:23:55.457Z,101778.56
2023-04-20T03:26:26.733Z,101789.66
2023-04-20T03:29:15.307Z,101796.03
2023-04-20T03:31:42.160Z,101766.28
2023-04-20T03:34:12.382Z,101795.25
2023-04-20T03:36:40.099Z,101698.09
2023-04-20T03:39:07.026Z,101701.59
2023-04-20T03:41:33.718Z,101754.88
2023-04-20T03:44:00.296Z,101777.56
2023-04-20T03:46:27.666Z,101780.22
2023-04-20T03:48:54.382Z,101775.88
2023-04-20T03:51:21.185Z,101681.28
2023-04-20T03:53:47.933Z,101789.19
2023-04-20T03:56:14.636Z,101667.63
2023-04-20T03:58:42.072Z,101734.22
2023-04-20T04:01:15.775Z,101775.88
2023-04-20T04:03:46.968Z,101771.25
2023-04-20T04:06:41.203Z,101773.25
2023-04-20T04:09:08.905Z,101760.06
2023-04-20T04:11:36.113Z,101719.44
2023-04-20T04:14:05.172Z,101672.56
2023-04-20T04:16:32.831Z,101632.44
2023-04-20T04:18:59.565Z,101734.00
2023-04-20T04:21:27.638Z,101741.66
2023-04-20T04:24:00.003Z,101713.50
2023-04-20T04:26:36.245Z,101722.50
2023-04-20T04:29:04.826Z,101669.97
2023-04-20T04:31:32.970Z,101716.88
2023-04-20T04:34:07.763Z,101659.50
2023-04-20T04:36:40.540Z,101721.03
2023-04-20T04:39:10.962Z,101711.13
2023-04-20T04:41:41.034Z,101720.25
2023-04-20T04:44:22.217Z,101720.03
2023-04-20T04:46:49.046Z,101727.19
2023-04-20T04:49:16.224Z,101684.09
2023-04-20T04:51:43.051Z,101722.84
2023-04-20T04:54:11.355Z,101721.16
2023-04-20T04:56:38.003Z,101699.66
2023-04-20T04:59:04.798Z,101697.84
2023-04-20T05:01:31.408Z,101698.91
2023-04-20T05:03:58.258Z,101694.47
2023-04-20T05:06:25.453Z,101717.19
2023-04-20T05:08:52.116Z,101686.88
2023-04-20T05:11:19.110Z,101720.97
2023-04-20T05:13:45.834Z,101713.75
2023-04-20T05:16:12.522Z,101708.41
2023-04-20T05:18:39.179Z,101713.75
2023-04-20T05:21:05.819Z,101709.31
2023-04-20T05:23:32.855Z,101711.94
2023-04-20T05:25:59.506Z,101714.59
2023-04-20T05:28:26.765Z,101708.34
2023-04-20T05:30:55.278Z,101716.06
2023-04-20T05:33:22.512Z,101701.19
2023-04-20T05:35:52.029Z,101708.28
2023-04-20T05:38:18.610Z,101686.81
2023-04-20T05:40:45.102Z,101695.16
2023-04-20T05:43:11.712Z,101705.00
2023-04-20T05:45:39.443Z,101710.72
2023-04-20T05:48:06.292Z,101681.22
2023-04-20T05:50:33.053Z,101687.22
2023-04-20T05:52:59.713Z,101693.03
2023-04-20T05:55:26.918Z,101706.25
2023-04-20T05:57:53.587Z,101701.88
2023-04-20T06:00:21.179Z,101712.25
2023-04-20T06:02:48.802Z,101718.50
2023-04-20T06:05:15.711Z,101674.47
2023-04-20T06:07:42.383Z,101667.97
2023-04-20T06:10:09.662Z,101670.47
2023-04-20T06:12:36.407Z,101665.47
2023-04-20T06:15:04.793Z,101706.78
2023-04-20T06:17:31.563Z,101609.97
2023-04-20T06:19:58.097Z,101708.19
2023-04-20T06:22:24.676Z,101679.13
2023-04-20T06:24:51.281Z,101685.69
2023-04-20T06:27:17.828Z,101669.47
2023-04-20T06:29:44.476Z,101617.44
2023-04-20T06:32:11.423Z,101681.94
2023-04-20T06:34:38.267Z,101704.56
2023-04-20T06:37:07.498Z,101713.28
2023-04-20T06:39:35.350Z,101675.59
2023-04-20T06:42:02.696Z,101688.97
2023-04-20T06:44:29.326Z,101699.63
2023-04-20T06:46:56.079Z,101694.88
2023-04-20T06:49:22.675Z,101670.78
2023-04-20T06:51:49.286Z,101523.03
2023-04-20T06:54:16.791Z,101660.78
2023-04-20T06:56:43.531Z,101685.94
2023-04-20T06:59:10.161Z,101690.63
2023-04-20T07:01:36.738Z,101668.72
2023-04-20T07:04:03.586Z,101697.38
2023-04-20T07:06:30.580Z,101703.00
2023-04-20T07:08:57.247Z,101684.56
2023-04-20T07:11:24.658Z,101698.84
2023-04-20T07:13:51.313Z,101661.28
2023-04-20T07:16:17.864Z,101691.28
2023-04-20T07:18:44.524Z,101660.28
2023-04-20T07:21:11.115Z,101669.31
2023-04-20T07:23:37.635Z,101690.00
2023-04-20T07:26:05.433Z,101656.84
2023-04-20T07:28:32.770Z,101660.00
2023-04-20T07:30:59.509Z,101680.75
2023-04-20T07:33:26.321Z,101663.81
2023-04-20T07:35:52.940Z,101661.66
2023-04-20T07:38:19.566Z,101658.78
2023-04-20T07:40:47.248Z,101666.78
2023-04-20T07:43:13.905Z,101671.72
2023-04-20T07:45:41.775Z,101631.28
2023-04-20T07:48:12.370Z,101614.75
2023-04-20T07:50:39.252Z,101656.38
2023-04-20T07:53:07.158Z,101655.44
2023-04-20T07:55:33.803Z,101648.06
2023-04-20T07:58:00.858Z,101655.31
2023-04-20T08:00:27.539Z,101678.34
2023-04-20T08:02:54.256Z,101679.56
2023-04-20T08:05:21.374Z,101687.16
2023-04-20T08:07:48.464Z,101668.81
2023-04-20T08:10:15.214Z,101634.13
2023-04-20T08:12:41.853Z,101663.94
2023-04-20T08:15:09.434Z,101656.69
2023-04-20T08:17:36.209Z,101659.81
2023-04-20T08:20:04.713Z,101664.59
2023-04-20T08:22:33.577Z,101663.59
2023-04-20T08:25:00.220Z,101670.13
2023-04-20T08:27:29.620Z,101647.13
2023-04-20T08:29:56.632Z,101647.78
2023-04-20T08:32:26.484Z,101653.97
2023-04-20T08:34:54.022Z,101655.66
2023-04-20T08:37:21.274Z,101677.16
2023-04-20T08:39:47.910Z,101561.72
2023-04-20T08:42:16.786Z,101647.78
2023-04-20T08:44:43.389Z,101659.66
2023-04-20T08:47:11.931Z,101605.06
2023-04-20T08:49:42.122Z,101537.44
2023-04-20T08:52:11.032Z,101569.41
2023-04-20T08:54:45.795Z,101646.06
2023-04-20T08:57:12.697Z,101642.53
2023-04-20T08:59:39.391Z,101660.56
2023-04-20T09:02:14.002Z,101639.06
2023-04-20T09:04:41.084Z,101641.16
2023-04-20T09:07:18.422Z,101657.13
2023-04-20T09:09:56.248Z,101655.09
2023-04-20T09:12:24.645Z,101656.84
2023-04-20T09:14:52.058Z,101627.09
2023-04-20T09:17:31.697Z,101649.25
2023-04-20T09:19:58.355Z,101641.66
2023-04-20T09:22:33.615Z,101646.72
2023-04-20T09:25:01.189Z,101660.41
2023-04-20T09:27:27.909Z,101665.78
2023-04-20T09:30:03.674Z,101650.81
2023-04-20T09:32:30.336Z,101632.78
2023-04-20T09:34:57.044Z,101628.44
2023-04-20T09:37:24.083Z,101582.94
2023-04-20T09:39:51.079Z,101617.00
2023-04-20T09:42:17.936Z,101621.59
2023-04-20T09:44:44.724Z,101637.50
2023-04-20T09:47:21.436Z,101578.63
2023-04-20T09:49:48.036Z,101617.94
2023-04-20T09:52:18.722Z,101573.91
2023-04-20T09:54:46.015Z,101638.94
2023-04-20T09:57:13.969Z,101581.47
2023-04-20T09:59:43.611Z,101577.81
2023-04-20T10:02:14.316Z,101634.69
2023-04-20T10:04:57.893Z,101551.13
2023-04-20T10:07:26.451Z,101647.69
2023-04-20T10:10:10.052Z,101635.13
2023-04-20T10:12:57.257Z,101622.38
2023-04-20T10:15:27.197Z,101554.94
2023-04-20T10:17:54.091Z,101611.94
2023-04-20T10:20:23.895Z,101603.75
2023-04-20T10:22:54.933Z,101591.69
2023-04-20T10:25:26.905Z,101603.69
2023-04-20T10:27:59.047Z,101602.97
2023-04-20T10:30:26.893Z,101589.56
2023-04-20T10:33:04.429Z,101582.13
2023-04-20T10:35:51.611Z,101585.06
2023-04-20T10:38:34.892Z,101614.22
2023-04-20T10:41:09.185Z,101602.84
2023-04-20T10:43:36.028Z,101524.88
2023-04-20T10:46:02.836Z,101569.47
2023-04-20T10:48:29.521Z,101560.03
2023-04-20T10:50:56.346Z,101567.81
2023-04-20T10:53:23.964Z,101586.00
2023-04-20T10:56:00.583Z,101588.28
2023-04-20T10:58:27.475Z,101533.06
2023-04-20T11:01:01.644Z,101572.03
2023-04-20T11:03:30.418Z,101565.84
2023-04-20T11:06:01.211Z,101550.59
2023-04-20T11:08:41.025Z,101542.84
2023-04-20T11:11:21.648Z,101573.13
2023-04-20T11:13:48.609Z,101538.03
2023-04-20T11:16:17.003Z,101561.94
2023-04-20T11:18:54.288Z,101523.88
2023-04-20T11:21:22.384Z,101566.50
2023-04-20T11:23:50.010Z,101547.94
2023-04-20T11:26:17.072Z,101548.25
2023-04-20T11:28:56.224Z,101556.09
2023-04-20T11:31:23.313Z,101525.66
2023-04-20T11:33:51.311Z,101480.09
2023-04-20T11:36:19.496Z,101558.91
2023-04-20T11:38:46.199Z,101513.91
2023-04-20T11:41:12.882Z,101528.41
2023-04-20T11:43:39.490Z,101551.88
2023-04-20T11:46:14.656Z,101538.38
2023-04-20T11:48:41.538Z,101541.50
2023-04-20T11:51:08.367Z,101520.44
2023-04-20T11:53:34.913Z,101528.97
2023-04-20T11:56:01.571Z,101528.22
2023-04-20T11:58:28.231Z,101510.78
2023-04-20T12:00:54.954Z,101512.53
2023-04-20T12:03:22.365Z,101533.44
2023-04-20T12:05:49.312Z,101513.34
2023-04-20T12:08:17.495Z,101499.03
2023-04-20T12:10:44.702Z,101516.94
2023-04-20T12:13:11.421Z,101443.16
2023-04-20T12:15:37.956Z,101417.91
2023-04-20T12:18:04.713Z,101474.72
2023-04-20T12:20:32.519Z,101504.72
2023-04-20T12:22:59.273Z,101518.22
2023-04-20T12:25:25.874Z,101509.91
2023-04-20T12:27:52.548Z,101508.16
2023-04-20T12:30:19.337Z,101513.63
2023-04-20T12:32:46.149Z,101472.13
2023-04-20T12:35:12.793Z,101455.13
2023-04-20T12:37:39.453Z,101451.22
2023-04-20T12:40:07.209Z,101527.69
2023-04-20T12:42:33.906Z,101509.19
2023-04-20T12:45:00.595Z,101514.28
2023-04-20T12:47:27.268Z,101484.84
2023-04-20T12:49:55.021Z,101525.44
2023-04-20T12:52:21.888Z,101427.88
2023-04-20T12:54:48.538Z,101505.59
2023-04-20T12:57:15.385Z,101497.38
2023-04-20T12:59:42.872Z,101499.19
2023-04-20T13:02:10.969Z,101477.69
2023-04-20T13:04:37.739Z,101486.28
2023-04-20T13:07:04.319Z,101482.09
2023-04-20T13:09:30.947Z,101501.88
2023-04-20T13:11:57.982Z,101466.38
2023-04-20T13:14:25.758Z,101496.78
2023-04-20T13:16:55.172Z,101456.72
2023-04-20T13:19:22.331Z,101474.69
2023-04-20T13:21:48.964Z,101454.09
2023-04-20T13:24:15.757Z,101469.25
2023-04-20T13:26:42.684Z,101470.22
2023-04-20T13:29:09.299Z,101500.47
2023-04-20T13:31:36.917Z,101485.13
2023-04-20T13:34:03.715Z,101489.31
2023-04-20T13:36:31.472Z,101489.00
2023-04-20T13:38:58.161Z,101478.47
2023-04-20T13:41:24.866Z,101475.13
2023-04-20T13:43:51.526Z,101465.19
2023-04-20T13:46:19.899Z,101472.47
2023-04-20T13:48:46.626Z,101484.38
2023-04-20T13:51:13.171Z,101430.91
2023-04-20T13:53:39.800Z,101471.94
2023-04-20T13:56:06.526Z,101473.78
2023-04-20T13:58:33.148Z,101436.25
2023-04-20T14:00:59.742Z,101427.13
2023-04-20T14:03:26.749Z,101454.88
2023-04-20T14:05:53.594Z,101392.69
2023-04-20T14:08:20.688Z,101438.19
2023-04-20T14:10:47.316Z,101444.41
2023-04-20T14:13:14.050Z,101435.81
2023-04-20T14:15:41.481Z,101446.59
2023-04-20T14:18:08.258Z,101435.75
2023-04-20T14:20:35.081Z,101431.91
2023-04-20T14:23:01.747Z,101423.53
2023-04-20T14:25:28.461Z,101433.97
2023-04-20T14:27:55.011Z,101431.50
2023-04-20T14:30:21.983Z,101418.56
2023-04-20T14:32:59.724Z,101452.06
2023-04-20T14:35:28.313Z,101424.06
2023-04-20T14:37:55.028Z,101359.19
2023-04-20T14:40:22.079Z,101428.28
2023-04-20T14:42:48.732Z,101436.91
2023-04-20T14:45:15.505Z,101427.94
2023-04-20T14:47:42.188Z,101408.53
2023-04-20T14:50:09.799Z,101439.78
2023-04-20T14:52:37.380Z,101424.56
2023-04-20T14:55:04.394Z,101400.47
2023-04-20T14:57:31.978Z,101439.50
2023-04-20T14:59:58.583Z,101421.38
2023-04-20T15:02:25.525Z,101408.34
2023-04-20T15:04:52.414Z,101428.13
2023-04-20T15:07:19.247Z,101408.53
2023-04-20T15:09:46.342Z,101407.84
2023-04-20T15:12:13.059Z,101413.00
2023-04-20T15:14:39.720Z,101406.38
2023-04-20T15:17:06.365Z,101403.66
2023-04-20T15:19:32.956Z,101365.88
2023-04-20T15:21:59.618Z,101392.66
2023-04-20T15:24:26.295Z,101428.13
2023-04-20T15:26:53.019Z,101396.91
2023-04-20T15:29:19.672Z,101340.41
2023-04-20T15:31:46.821Z,101403.66
2023-04-20T15:34:15.426Z,101426.69
2023-04-20T15:36:43.520Z,101345.16
2023-04-20T15:39:10.172Z,101388.00
2023-04-20T15:41:36.767Z,101361.66
2023-04-20T15:44:03.416Z,101413.63
2023-04-20T15:46:30.106Z,101393.03
2023-04-20T15:48:56.857Z,101342.06
2023-04-20T15:51:24.826Z,101403.47
2023-04-20T15:53:51.730Z,101405.75
2023-04-20T15:56:18.689Z,101383.63
2023-04-20T15:58:46.239Z,101340.25
2023-04-20T16:01:12.924Z,101419.94
2023-04-20T16:03:39.888Z,101400.03
2023-04-20T16:06:07.152Z,101391.59
2023-04-20T16:08:33.851Z,101409.34
2023-04-20T16:11:00.613Z,101433.38
2023-04-20T16:13:27.346Z,101340.66
2023-04-20T16:15:55.616Z,101386.53
2023-04-20T16:18:22.291Z,101326.78
2023-04-20T16:20:48.942Z,101400.75
2023-04-20T16:23:15.849Z,101401.00
2023-04-20T16:25:42.455Z,101390.63
2023-04-20T16:28:09.110Z,101380.78
2023-04-20T16:30:36.980Z,101393.81
2023-04-20T16:33:03.957Z,101414.78
2023-04-20T16:35:32.225Z,101423.69
2023-04-20T16:37:58.879Z,101427.16
2023-04-20T16:40:26.309Z,101423.41
2023-04-20T16:42:53.006Z,101389.31
2023-04-20T16:45:19.617Z,101405.59
2023-04-20T16:47:46.576Z,101396.81
2023-04-20T16:50:19.140Z,101403.94
2023-04-20T16:52:49.775Z,101340.22
2023-04-20T16:55:16.398Z,101425.34
2023-04-20T16:57:43.053Z,101392.28
2023-04-20T17:00:10.868Z,101425.47
2023-04-20T17:02:37.892Z,101393.34
2023-04-20T17:05:07.161Z,101403.06
2023-04-20T17:07:33.787Z,101401.94
2023-04-20T17:10:00.480Z,101418.84
2023-04-20T17:12:27.227Z,101407.16
2023-04-20T17:14:55.141Z,101355.91
2023-04-20T17:17:21.758Z,101426.53
2023-04-20T17:19:48.308Z,101400.75
2023-04-20T17:22:14.937Z,101414.97
2023-04-20T17:24:41.522Z,101426.59
2023-04-20T17:27:08.231Z,101390.78
2023-04-20T17:29:38.258Z,101426.69
2023-04-20T17:32:05.903Z,101442.91
2023-04-20T17:34:32.989Z,101476.63
2023-04-20T17:36:59.623Z,101470.59
2023-04-20T17:39:26.612Z,101439.38
2023-04-20T17:41:53.296Z,101396.09
2023-04-20T17:44:20.292Z,101423.97
2023-04-20T17:46:47.168Z,101451.50
2023-04-20T17:49:13.720Z,101412.63
2023-04-20T17:51:40.284Z,101463.81
2023-04-20T17:54:07.686Z,101468.19
2023-04-20T17:56:34.244Z,101381.13
2023-04-20T17:59:01.052Z,101473.31
2023-04-20T18:01:28.094Z,101437.28
2023-04-20T18:03:54.953Z,101468.47
2023-04-20T18:06:21.736Z,101427.09
2023-04-20T18:08:48.294Z,101450.22
2023-04-20T18:11:14.839Z,101404.41
2023-04-20T18:13:41.460Z,101391.94
2023-04-20T18:16:08.398Z,101452.09
2023-04-20T18:18:35.190Z,101469.97
2023-04-20T18:21:01.807Z,101422.13
2023-04-20T18:23:29.955Z,101432.66
2023-04-20T18:25:56.776Z,101465.38
2023-04-20T18:28:23.507Z,101462.16
2023-04-20T18:30:50.133Z,101396.25
2023-04-20T18:33:16.702Z,101464.91
2023-04-20T18:35:43.826Z,101426.34
2023-04-20T18:38:10.348Z,101415.16
2023-04-20T18:40:36.959Z,101476.84
2023-04-20T18:43:03.602Z,101468.28
2023-04-20T18:45:30.881Z,101472.94
2023-04-20T18:47:58.218Z,101488.91
2023-04-20T18:50:24.915Z,101471.81
2023-04-20T18:52:51.493Z,101496.13
2023-04-20T18:55:18.149Z,101507.69
2023-04-20T18:57:44.685Z,101482.56
2023-04-20T19:00:11.748Z,101461.19
2023-04-20T19:02:38.465Z,101505.28
2023-04-20T19:05:05.545Z,101503.56
2023-04-20T19:07:32.222Z,101437.19
2023-04-20T19:09:58.924Z,101504.38
2023-04-20T19:12:25.463Z,101502.38
2023-04-20T19:14:52.145Z,101505.88
2023-04-20T19:17:18.653Z,101448.13
2023-04-20T19:19:45.943Z,101496.03
2023-04-20T19:22:12.459Z,101509.69
2023-04-20T19:24:39.110Z,101454.66
2023-04-20T19:27:05.822Z,101466.34
2023-04-20T19:29:35.288Z,101482.41
2023-04-20T19:32:02.044Z,101514.69
2023-04-20T19:34:28.763Z,101464.44
2023-04-20T19:36:55.545Z,101368.38
2023-04-20T19:39:22.219Z,101480.63
2023-04-20T19:41:48.918Z,101498.41
2023-04-20T19:44:15.843Z,101505.44
2023-04-20T19:46:43.555Z,101478.16
2023-04-20T19:49:10.275Z,101455.59
2023-04-20T19:51:36.906Z,101490.97
2023-04-20T19:54:04.825Z,101485.38
2023-04-20T19:56:32.284Z,101496.03
2023-04-20T19:58:58.987Z,101508.44
2023-04-20T20:01:25.679Z,101471.59
2023-04-20T20:03:52.606Z,101485.84
2023-04-20T20:06:19.596Z,101487.75
2023-04-20T20:08:46.537Z,101464.22
2023-04-20T20:11:13.135Z,101447.25
2023-04-20T20:13:40.010Z,101456.16
2023-04-20T20:16:06.650Z,101477.53
2023-04-20T20:18:33.373Z,101466.75
2023-04-20T20:20:59.915Z,101443.31
2023-04-20T20:23:26.708Z,101445.00
2023-04-20T20:25:53.330Z,101475.66
2023-04-20T20:28:21.127Z,101455.69
2023-04-20T20:30:47.760Z,101449.31
2023-04-20T20:33:14.570Z,101446.44
2023-04-20T20:35:41.593Z,101385.66
2023-04-20T20:38:11.038Z,101445.00
2023-04-20T20:40:39.702Z,101436.03
2023-04-20T20:43:06.696Z,101469.09
2023-04-20T20:45:33.368Z,101460.19
2023-04-20T20:48:00.505Z,101426.81
2023-04-20T20:50:27.916Z,101455.78
2023-04-20T20:52:54.721Z,101459.28
2023-04-20T20:55:21.555Z,101410.78
2023-04-20T20:57:48.153Z,101421.56
2023-04-20T21:00:15.174Z,101402.78
2023-04-20T21:02:43.129Z,101390.41
2023-04-20T21:05:10.249Z,101436.03
2023-04-20T21:07:36.856Z,101450.59
2023-04-20T21:10:03.646Z,101407.47
2023-04-20T21:12:30.454Z,101416.44
2023-04-20T21:14:57.245Z,101407.56
2023-04-20T21:17:23.953Z,101409.25
2023-04-20T21:20:41.364Z,101439.13
2023-04-20T21:23:08.671Z,101395.13
2023-04-20T21:25:36.091Z,101386.28
2023-04-20T21:28:02.660Z,101374.59
2023-04-20T21:30:29.449Z,101445.31
2023-04-20T21:32:56.146Z,101437.16
2023-04-20T21:35:22.829Z,101429.91
2023-04-20T21:37:49.378Z,101448.97
2023-04-20T21:40:16.035Z,101434.59
2023-04-20T21:42:42.648Z,101446.00
2023-04-20T21:45:09.880Z,101431.72
2023-04-20T21:47:36.535Z,101479.16
2023-04-20T21:50:03.362Z,101437.56
2023-04-20T21:52:31.005Z,101474.38
2023-04-20T21:54:57.665Z,101453.53
2023-04-20T21:57:24.278Z,101406.81
2023-04-20T21:59:50.890Z,101416.47
2023-04-20T22:02:17.619Z,101444.09
2023-04-20T22:04:45.696Z,101474.53
2023-04-20T22:07:12.442Z,101450.09
2023-04-20T22:09:39.048Z,101461.78
2023-04-20T22:12:06.556Z,101435.66
2023-04-20T22:14:33.755Z,101467.59
2023-04-20T22:17:01.792Z,101464.09
2023-04-20T22:19:29.002Z,101445.28
2023-04-20T22:21:55.675Z,101439.72
2023-04-20T22:24:22.347Z,101418.16
2023-04-20T22:26:49.117Z,101451.38
2023-04-20T22:29:15.978Z,101422.66
2023-04-20T22:31:42.760Z,101383.97
2023-04-20T22:34:09.449Z,101437.00
2023-04-20T22:36:36.125Z,101441.44
2023-04-20T22:39:02.791Z,101445.94
2023-04-20T22:41:31.020Z,101409.28
2023-04-20T22:43:57.664Z,101412.78
2023-04-20T22:46:25.584Z,101357.97
2023-04-20T22:48:52.412Z,101404.56
2023-04-20T22:51:18.977Z,101404.72
2023-04-20T22:53:45.570Z,101395.75
2023-04-20T22:56:12.171Z,101401.25
2023-04-20T22:58:39.810Z,101329.34
2023-04-20T23:01:06.451Z,101388.97
2023-04-20T23:03:33.355Z,101373.00
2023-04-20T23:06:00.203Z,101360.44
2023-04-20T23:08:28.254Z,101368.47
2023-04-20T23:10:55.194Z,101337.00
2023-04-20T23:13:22.055Z,101342.38
2023-04-20T23:15:51.559Z,101278.75
2023-04-20T23:18:18.282Z,101362.19
2023-04-20T23:20:45.008Z,101344.22
2023-04-20T23:23:11.835Z,101381.50
2023-04-20T23:25:38.689Z,101377.06
2023-04-20T23:28:05.344Z,101298.84
2023-04-20T23:30:32.012Z,101278.16
2023-04-20T23:32:58.847Z,101379.56
2023-04-20T23:35:25.508Z,101364.09
2023-04-20T23:37:52.188Z,101357.88
2023-04-20T23:40:18.851Z,101372.97
2023-04-20T23:42:45.493Z,101324.66
2023-04-20T23:45:12.313Z,101366.00
2023-04-20T23:47:38.998Z,101350.66
2023-04-20T23:50:06.652Z,101340.41
2023-04-20T23:52:35.195Z,101327.94
2023-04-20T23:55:01.762Z,101339.72
2023-04-20T23:57:28.452Z,101364.09
2023-04-20T23:59:55.604Z,101278.59
